Time;durP1;ratioP1;P1;durP2;ratioP2;P2;SDS_P1;SDS_P2;PMS_P1;PMS_P2;Temp;Humidity;BMP_temperature;BMP_pressure;BME280_temperature;BME280_humidity;BME280_pressure;Samples;Min_cycle;Max_cycle;Signal;HPM_P1;HPM_P2
2023/03/24 00:01:28;;;;;;;4.32;2.28;;;;;;;-145.50;100.00;65435.88;4900738;29;20066;-69
2023/03/24 00:03:54;;;;;;;7.57;2.33;;;;;;;-145.50;100.00;65435.88;4912010;29;20093;-70
2023/03/24 00:06:21;;;;;;;5.88;2.10;;;;;;;-145.50;100.00;65435.88;4912702;29;20474;-71
2023/03/24 00:08:48;;;;;;;5.00;2.05;;;;;;;-145.50;100.00;65435.88;4905626;29;20075;-70
2023/03/24 00:11:17;;;;;;;4.88;1.88;;;;;;;-145.50;100.00;65435.88;4912866;29;20062;-70
2023/03/24 00:13:45;;;;;;;3.92;2.10;;;;;;;-145.50;100.00;65435.88;4899939;29;20412;-70
2023/03/24 00:16:15;;;;;;;10.23;2.65;;;;;;;-145.50;100.00;65435.88;4910469;29;20052;-70
2023/03/24 00:18:42;;;;;;;4.28;2.28;;;;;;;-145.50;100.00;65435.88;4904940;29;20581;-69
2023/03/24 00:21:10;;;;;;;5.28;2.00;;;;;;;-145.50;100.00;65435.88;4912536;29;20048;-69
2023/03/24 00:23:37;;;;;;;6.35;1.90;;;;;;;-145.50;100.00;65435.88;4911439;29;20527;-70
2023/03/24 00:26:13;;;;;;;4.03;2.30;;;;;;;-145.50;100.00;65435.88;4900139;29;20056;-70
2023/03/24 00:28:44;;;;;;;6.05;2.50;;;;;;;-145.50;100.00;65435.88;4907095;29;20056;-69
2023/03/24 00:31:13;;;;;;;8.68;2.67;;;;;;;-145.50;100.00;65435.88;4906828;29;20062;-70
2023/03/24 00:33:41;;;;;;;6.50;2.58;;;;;;;-145.50;100.00;65435.88;4912139;29;20501;-69
2023/03/24 00:36:12;;;;;;;7.22;2.97;;;;;;;-145.50;100.00;65435.88;4906332;29;20063;-70
2023/03/24 00:38:40;;;;;;;7.65;2.63;;;;;;;-145.50;100.00;65435.88;4910342;29;20450;-70
2023/03/24 00:41:09;;;;;;;6.28;2.80;;;;;;;-145.50;100.00;65435.88;4915295;29;20052;-69
2023/03/24 00:43:36;;;;;;;4.15;2.25;;;;;;;-145.50;100.00;65435.88;4897189;29;20135;-69
2023/03/24 00:46:06;;;;;;;4.88;2.30;;;;;;;-145.50;100.00;65435.88;4912262;29;20070;-70
2023/03/24 00:48:33;;;;;;;4.78;2.40;;;;;;;-145.50;100.00;65435.88;4903245;29;20047;-70
2023/03/24 00:51:04;;;;;;;5.35;2.55;;;;;;;-145.50;100.00;65435.88;4911377;29;20882;-70
2023/03/24 00:53:30;;;;;;;5.60;2.67;;;;;;;-145.50;100.00;65435.88;4902843;29;20048;-69
2023/03/24 00:55:57;;;;;;;5.53;2.50;;;;;;;-145.50;100.00;65435.88;4905480;29;20395;-69
2023/03/24 00:58:24;;;;;;;6.30;2.80;;;;;;;-145.50;100.00;65435.88;4911774;29;20056;-70
2023/03/24 01:00:54;;;;;;;4.97;2.58;;;;;;;-145.50;100.00;65435.88;4905343;29;20044;-70
2023/03/24 01:03:25;;;;;;;5.63;2.63;;;;;;;-145.50;100.00;65435.88;4911881;29;20067;-69
2023/03/24 01:06:00;;;;;;;8.02;3.00;;;;;;;-145.50;100.00;65435.88;4905010;29;20055;-69
2023/03/24 01:08:28;;;;;;;8.30;2.78;;;;;;;-145.50;100.00;65435.88;4907090;29;20330;-69
2023/03/24 01:10:56;;;;;;;4.88;2.50;;;;;;;-145.50;100.00;65435.88;4911637;29;20040;-71
2023/03/24 01:13:25;;;;;;;8.07;2.67;;;;;;;-145.50;100.00;65435.88;4911558;29;20056;-70
2023/03/24 01:15:52;;;;;;;4.25;2.33;;;;;;;-145.50;100.00;65435.88;4902645;29;20078;-69
2023/03/24 01:18:20;;;;;;;5.00;2.50;;;;;;;-145.50;100.00;65435.88;4905026;29;20462;-69
2023/03/24 01:20:50;;;;;;;6.22;2.20;;;;;;;-145.50;100.00;65435.88;4910613;29;20485;-70
2023/03/24 01:23:24;;;;;;;5.90;2.50;;;;;;;-145.50;100.00;65435.88;4900770;29;20511;-69
2023/03/24 01:25:52;;;;;;;3.20;2.38;;;;;;;-145.50;100.00;65435.88;4909347;29;20083;-70
2023/03/24 01:28:23;;;;;;;6.78;2.67;;;;;;;-145.50;100.00;65435.88;4903734;29;20052;-69
2023/03/24 01:30:51;;;;;;;4.93;2.25;;;;;;;-145.50;100.00;65435.88;4925258;29;20052;-70
2023/03/24 01:33:18;;;;;;;3.50;2.38;;;;;;;-145.50;100.00;65435.88;4902249;29;20108;-68
2023/03/24 01:35:44;;;;;;;5.32;2.38;;;;;;;-145.50;100.00;65435.88;4903724;29;20087;-71
2023/03/24 01:38:13;;;;;;;4.70;2.65;;;;;;;-145.50;100.00;65435.88;4909847;29;20116;-70
2023/03/24 01:40:41;;;;;;;;;;;;;;;-145.50;100.00;65435.88;4903963;29;20052;-70
2023/03/24 01:43:17;;;;;;;;;;;;;;;-145.50;100.00;65435.88;4911638;29;20417;-69
2023/03/24 01:45:49;;;;;;;5.07;2.25;;;;;;;-145.50;100.00;65435.88;4897852;29;20470;-70
2023/03/24 01:48:25;;;;;;;3.58;2.05;;;;;;;-145.50;100.00;65435.88;4905088;29;20052;-69
2023/03/24 01:51:02;;;;;;;5.50;2.70;;;;;;;-145.50;100.00;65435.88;4891983;29;20275;-70
2023/03/24 01:53:32;;;;;;;5.18;2.75;;;;;;;-145.50;100.00;65435.88;4909948;29;20159;-69
2023/03/24 01:56:01;;;;;;;4.80;2.20;;;;;;;-145.50;100.00;65435.88;4906123;29;20071;-71
2023/03/24 01:58:31;;;;;;;3.53;2.42;;;;;;;-145.50;100.00;65435.88;4908741;29;20050;-71
2023/03/24 02:00:58;;;;;;;3.53;2.25;;;;;;;-145.50;100.00;65435.88;4909813;29;20059;-70
2023/03/24 02:03:28;;;;;;;3.80;2.15;;;;;;;-145.50;100.00;65435.88;4897284;29;20084;-69
2023/03/24 02:05:56;;;;;;;4.30;2.58;;;;;;;-145.50;100.00;65435.88;4909095;29;20594;-70
2023/03/24 02:08:33;;;;;;;4.38;2.30;;;;;;;-145.50;100.00;65435.88;4904539;29;20052;-71
2023/03/24 02:11:00;;;;;;;4.85;2.58;;;;;;;-145.50;100.00;65435.88;4907689;29;20449;-70
2023/03/24 02:13:27;;;;;;;5.37;2.70;;;;;;;-145.50;100.00;65435.88;4903600;29;20055;-70
2023/03/24 02:16:33;;;;;;;5.22;2.28;;;;;;;-145.50;100.00;65435.88;4904779;29;20059;-70
2023/03/24 02:19:40;;;;;;;3.38;2.17;;;;;;;-145.50;100.00;65435.88;4892492;29;20051;-70
2023/03/24 02:22:31;;;;;;;3.28;2.22;;;;;;;-145.50;100.00;65435.88;4909939;29;20163;-70
2023/03/24 02:25:10;;;;;;;4.15;2.55;;;;;;;-145.50;100.00;65435.88;4903183;29;20100;-70
2023/03/24 02:27:37;;;;;;;;;;;;;;;-145.50;100.00;65435.88;4905302;29;20052;-69
2023/03/24 02:30:19;;;;;;;4.22;2.10;;;;;;;-145.50;100.00;65435.88;4905570;29;20386;-70
2023/03/24 02:33:06;;;;;;;3.72;2.25;;;;;;;-145.50;100.00;65435.88;4901393;29;20052;-70
2023/03/24 02:36:01;;;;;;;4.32;2.22;;;;;;;-145.50;100.00;65435.88;4893177;29;20154;-70
2023/03/24 02:39:02;;;;;;;4.07;2.22;;;;;;;-145.50;100.00;65435.88;4910131;29;20076;-70
2023/03/24 02:42:06;;;;;;;6.43;2.90;;;;;;;-145.50;100.00;65435.88;4907307;29;20056;-70
2023/03/24 02:45:00;;;;;;;4.68;2.33;;;;;;;-145.50;100.00;65435.88;4904022;29;20115;-71
2023/03/24 02:47:42;;;;;;;5.75;2.70;;;;;;;-145.50;100.00;65435.88;4888595;29;20058;-70
2023/03/24 02:50:34;;;;;;;2.53;2.05;;;;;;;-145.50;100.00;65435.88;4908998;29;20064;-70
2023/03/24 02:53:16;;;;;;;5.65;2.22;;;;;;;-145.50;100.00;65435.88;4901492;29;20063;-70
2023/03/24 02:55:51;;;;;;;4.68;2.42;;;;;;;-145.50;100.00;65435.88;4908830;29;20059;-69
2023/03/24 02:58:50;;;;;;;3.03;2.00;;;;;;;-145.50;100.00;65435.88;4906019;29;20056;-71
2023/03/24 03:01:30;;;;;;;2.55;2.03;;;;;;;-145.50;100.00;65435.88;4897451;29;20075;-70
2023/03/24 03:04:11;;;;;;;6.10;2.63;;;;;;;-145.50;100.00;65435.88;4908604;29;20557;-70
2023/03/24 03:06:41;;;;;;;3.72;2.30;;;;;;;-145.50;100.00;65435.88;4902542;29;20418;-70
2023/03/24 03:09:15;;;;;;;5.80;2.88;;;;;;;-145.50;100.00;65435.88;4909837;29;20429;-71
2023/03/24 03:11:52;;;;;;;3.72;2.42;;;;;;;-145.50;100.00;65435.88;4899108;29;20219;-69
2023/03/24 03:14:27;;;;;;;3.95;2.47;;;;;;;-145.50;100.00;65435.88;4904876;29;20517;-71
2023/03/24 03:17:00;;;;;;;5.25;2.47;;;;;;;-145.50;100.00;65435.88;4900287;29;20528;-72
2023/03/24 03:19:54;;;;;;;4.65;2.17;;;;;;;-145.50;100.00;65435.88;4908795;29;20127;-70
2023/03/24 03:22:33;;;;;;;3.65;1.38;;;;;;;-145.50;100.00;65435.88;4903400;29;20747;-70
2023/03/24 03:25:02;;;;;;;2.92;1.30;;;;;;;-145.50;100.00;65435.88;4906912;29;20059;-70
2023/03/24 03:27:37;;;;;;;5.07;1.20;;;;;;;-145.50;100.00;65435.88;4912054;29;20052;-70
2023/03/24 03:30:14;;;;;;;1.85;0.80;;;;;;;-145.50;100.00;65435.88;4903374;29;20069;-70
2023/03/24 03:32:52;;;;;;;1.77;0.98;;;;;;;-145.50;100.00;65435.88;4908882;29;20052;-69
2023/03/24 03:35:32;;;;;;;2.40;0.90;;;;;;;-145.50;100.00;65435.88;4901957;29;20083;-69
2023/03/24 03:38:43;;;;;;;2.65;0.80;;;;;;;-145.50;100.00;65435.88;4903642;29;20679;-69
2023/03/24 03:41:10;;;;;;;4.38;1.00;;;;;;;-145.50;100.00;65435.88;4902420;29;20060;-69
2023/03/24 03:43:37;;;;;;;2.15;0.80;;;;;;;-145.50;100.00;65435.88;4905465;29;20068;-68
2023/03/24 03:46:05;;;;;;;2.70;1.10;;;;;;;-145.50;100.00;65435.88;4896529;29;20433;-69
2023/03/24 03:48:33;;;;;;;1.85;0.73;;;;;;;-145.50;100.00;65435.88;4908219;29;20056;-69
2023/03/24 03:51:00;;;;;;;3.03;0.80;;;;;;;-145.50;100.00;65435.88;4900835;29;20048;-65
2023/03/24 03:53:50;;;;;;;3.35;0.90;;;;;;;-145.50;100.00;65435.88;4919639;29;20520;-66
2023/03/24 03:56:23;;;;;;;3.67;1.13;;;;;;;-145.50;100.00;65435.88;4908709;29;20048;-67
2023/03/24 03:58:49;;;;;;;2.20;0.73;;;;;;;-145.50;100.00;65435.88;4888966;29;20048;-66
2023/03/24 04:01:20;;;;;;;4.78;1.00;;;;;;;-145.50;100.00;65435.88;4903884;29;20091;-65
2023/03/24 04:04:19;;;;;;;6.43;0.90;;;;;;;-145.50;100.00;65435.88;4902701;29;20628;-64
2023/03/24 04:07:06;;;;;;;4.05;0.90;;;;;;;-145.50;100.00;65435.88;4907652;29;20059;-64
2023/03/24 04:10:12;;;;;;;5.28;0.88;;;;;;;-145.50;100.00;65435.88;4902125;29;20493;-65
2023/03/24 04:12:56;;;;;;;6.15;1.45;;;;;;;-145.50;100.00;65435.88;4896939;29;20047;-65
2023/03/24 04:15:31;;;;;;;4.10;1.20;;;;;;;-145.50;100.00;65435.88;4894734;29;20498;-64
2023/03/24 04:18:04;;;;;;;3.50;0.88;;;;;;;-145.50;100.00;65435.88;4905804;29;20078;-66
2023/03/24 04:20:45;;;;;;;5.95;1.40;;;;;;;-145.50;100.00;65435.88;4902574;29;20083;-64
2023/03/24 04:23:45;;;;;;;5.38;1.40;;;;;;;-145.50;100.00;65435.88;4903522;29;20104;-66
2023/03/24 04:26:26;;;;;;;8.32;1.38;;;;;;;-145.50;100.00;65435.88;4894975;29;20076;-65
2023/03/24 04:29:07;;;;;;;5.63;1.20;;;;;;;-145.50;100.00;65435.88;4903488;29;20052;-65
2023/03/24 04:31:43;;;;;;;7.60;1.60;;;;;;;-145.50;100.00;65435.88;4902623;29;20410;-65
2023/03/24 04:34:21;;;;;;;8.10;1.73;;;;;;;-145.50;100.00;65435.88;4907548;29;20055;-64
2023/03/24 04:37:04;;;;;;;9.85;1.52;;;;;;;-145.50;100.00;65435.88;4905013;29;20044;-65
2023/03/24 04:39:37;;;;;;;9.27;1.33;;;;;;;-145.50;100.00;65435.88;4906187;29;20044;-66
2023/03/24 04:42:10;;;;;;;8.23;1.73;;;;;;;-145.50;100.00;65435.88;4896656;29;20052;-65
2023/03/24 04:44:40;;;;;;;6.20;1.35;;;;;;;-145.50;100.00;65435.88;4905370;29;20071;-66
2023/03/24 04:47:07;;;;;;;13.38;2.05;;;;;;;-145.50;100.00;65435.88;4910993;29;20108;-65
2023/03/24 04:49:38;;;;;;;12.50;1.83;;;;;;;-145.50;100.00;65435.88;4904941;29;20127;-66
2023/03/24 04:52:06;;;;;;;7.78;1.77;;;;;;;-145.50;100.00;65435.88;4911992;29;20675;-66
2023/03/24 04:54:33;;;;;;;16.02;1.70;;;;;;;-145.50;100.00;65435.88;4898654;29;20052;-66
2023/03/24 04:57:00;;;;;;;14.35;2.00;;;;;;;-145.50;100.00;65435.88;4909771;29;20079;-65
2023/03/24 04:59:28;;;;;;;8.80;1.80;;;;;;;-145.50;100.00;65435.88;4910208;29;20047;-66
2023/03/24 05:01:54;;;;;;;13.40;1.77;;;;;;;-145.50;100.00;65435.88;4903367;29;20072;-65
2023/03/24 05:04:24;;;;;;;22.83;2.20;;;;;;;-145.50;100.00;65435.88;4911431;29;20048;-65
2023/03/24 05:06:50;;;;;;;21.95;3.40;;;;;;;-145.50;100.00;65435.88;4904333;29;20058;-66
2023/03/24 05:09:22;;;;;;;15.40;1.75;;;;;;;-145.50;100.00;65435.88;4910610;29;20731;-64
2023/03/24 05:11:48;;;;;;;14.07;2.63;;;;;;;-145.50;100.00;65435.88;4898339;29;20087;-65
2023/03/24 05:14:16;;;;;;;15.55;2.97;;;;;;;-145.50;100.00;65435.88;4910244;29;20703;-65
2023/03/24 05:16:42;;;;;;;12.65;2.08;;;;;;;-145.50;100.00;65435.88;4900477;29;20056;-65
2023/03/24 05:19:09;;;;;;;11.27;1.65;;;;;;;-145.50;100.00;65435.88;4903310;29;20094;-66
2023/03/24 05:21:35;;;;;;;12.65;2.30;;;;;;;-145.50;100.00;65435.88;4910455;29;20488;-65
2023/03/24 05:24:02;;;;;;;15.43;2.08;;;;;;;-145.50;100.00;65435.88;4901150;29;20542;-65
2023/03/24 05:26:30;;;;;;;14.50;2.47;;;;;;;-145.50;100.00;65435.88;4910827;29;20091;-66
2023/03/24 05:28:59;;;;;;;12.43;2.65;;;;;;;-145.50;100.00;65435.88;4891318;29;20060;-65
2023/03/24 05:31:25;;;;;;;10.05;2.70;;;;;;;-145.50;100.00;65435.88;4920844;29;20135;-64
2023/03/24 05:33:52;;;;;;;9.25;2.25;;;;;;;-145.50;100.00;65435.88;4899989;29;20059;-65
2023/03/24 05:36:18;;;;;;;10.05;2.08;;;;;;;-145.50;100.00;65435.88;4909118;29;20075;-65
2023/03/24 05:38:45;;;;;;;11.38;2.40;;;;;;;-145.50;100.00;65435.88;4910174;29;20398;-64
2023/03/24 05:41:11;;;;;;;10.73;2.75;;;;;;;-145.50;100.00;65435.88;4904219;29;20702;-65
2023/03/24 05:43:38;;;;;;;14.18;2.58;;;;;;;-145.50;100.00;65435.88;4910201;29;20052;-66
2023/03/24 05:46:04;;;;;;;12.43;2.97;;;;;;;-145.50;100.00;65435.88;4897948;29;20084;-65
2023/03/24 05:48:31;;;;;;;12.05;3.25;;;;;;;-145.50;100.00;65435.88;4903912;29;20052;-64
2023/03/24 05:50:57;;;;;;;11.10;2.90;;;;;;;-145.50;100.00;65435.88;4906999;29;20070;-65
2023/03/24 05:53:24;;;;;;;17.08;3.25;;;;;;;-145.50;100.00;65435.88;4908453;29;20052;-66
2023/03/24 05:55:52;;;;;;;11.10;3.15;;;;;;;-145.50;100.00;65435.88;4909198;29;20063;-64
2023/03/24 05:58:20;;;;;;;13.52;2.80;;;;;;;-145.50;100.00;65435.88;4903252;29;20548;-66
2023/03/24 06:00:47;;;;;;;10.23;2.50;;;;;;;-145.50;100.00;65435.88;4902434;29;20572;-64
2023/03/24 06:03:15;;;;;;;13.27;2.42;;;;;;;-145.50;100.00;65435.88;4901225;29;20056;-65
2023/03/24 06:05:44;;;;;;;10.70;2.85;;;;;;;-145.50;100.00;65435.88;4909312;29;20083;-65
2023/03/24 06:08:11;;;;;;;16.33;3.30;;;;;;;-145.50;100.00;65435.88;4902390;29;20056;-65
2023/03/24 06:10:39;;;;;;;11.38;2.55;;;;;;;-145.50;100.00;65435.88;4906584;29;20501;-65
2023/03/24 06:13:07;;;;;;;14.10;3.03;;;;;;;-145.50;100.00;65435.88;4906021;29;20056;-66
2023/03/24 06:15:35;;;;;;;11.45;2.85;;;;;;;-145.50;100.00;65435.88;4898492;29;20501;-65
2023/03/24 06:18:04;;;;;;;16.73;3.25;;;;;;;-145.50;100.00;65435.88;4909422;29;20094;-65
2023/03/24 06:20:31;;;;;;;16.13;3.10;;;;;;;-145.50;100.00;65435.88;4902632;29;20055;-64
2023/03/24 06:22:58;;;;;;;12.88;3.40;;;;;;;-145.50;100.00;65435.88;4896763;29;20048;-65
2023/03/24 06:25:27;;;;;;;14.10;3.53;;;;;;;-145.50;100.00;65435.88;4909400;29;20458;-65
2023/03/24 06:27:54;;;;;;;12.43;3.10;;;;;;;-145.50;100.00;65435.88;4897469;29;20056;-66
2023/03/24 06:30:20;;;;;;;12.75;3.22;;;;;;;-145.50;100.00;65435.88;4904746;29;20052;-65
2023/03/24 06:32:47;;;;;;;14.15;2.85;;;;;;;-145.50;100.00;65435.88;4901602;29;20048;-64
2023/03/24 06:35:14;;;;;;;9.85;3.60;;;;;;;-145.50;100.00;65435.88;4909386;29;20059;-64
2023/03/24 06:37:42;;;;;;;11.50;3.10;;;;;;;-145.50;100.00;65435.88;4902947;29;20056;-64
2023/03/24 06:40:12;;;;;;;9.90;2.78;;;;;;;-145.50;100.00;65435.88;4909562;29;20055;-65
2023/03/24 06:42:39;;;;;;;11.20;3.03;;;;;;;-145.50;100.00;65435.88;4902580;29;20055;-67
2023/03/24 06:45:06;;;;;;;14.25;2.85;;;;;;;-145.50;100.00;65435.88;4898021;29;20489;-65
2023/03/24 06:47:33;;;;;;;11.17;2.70;;;;;;;-145.50;100.00;65435.88;4908247;29;20056;-66
2023/03/24 06:50:00;;;;;;;9.32;2.63;;;;;;;-145.50;100.00;65435.88;4903066;29;20090;-65
2023/03/24 06:52:27;;;;;;;11.18;3.40;;;;;;;-145.50;100.00;65435.88;4909099;29;20131;-65
2023/03/24 06:54:53;;;;;;;9.60;3.03;;;;;;;-145.50;100.00;65435.88;4887465;29;20056;-66
2023/03/24 06:57:20;;;;;;;9.27;2.75;;;;;;;-145.50;100.00;65435.88;4904641;29;20083;-65
2023/03/24 06:59:47;;;;;;;8.10;2.75;;;;;;;-145.50;100.00;65435.88;4908633;29;20533;-64
2023/03/24 07:02:14;;;;;;;12.82;3.20;;;;;;;-145.50;100.00;65435.88;4903697;29;20102;-66
2023/03/24 07:04:41;;;;;;;12.52;2.45;;;;;;;-145.50;100.00;65435.88;4908682;29;20474;-65
2023/03/24 07:07:09;;;;;;;9.07;2.30;;;;;;;-145.50;100.00;65435.88;4903697;29;20044;-65
2023/03/24 07:09:55;;;;;;;10.75;3.08;;;;;;;-145.50;100.00;65435.88;4899881;29;20100;-65
2023/03/24 07:12:22;;;;;;;9.70;2.85;;;;;;;-145.50;100.00;65435.88;4898753;29;20044;-65
2023/03/24 07:14:49;;;;;;;12.48;3.03;;;;;;;-145.50;100.00;65435.88;4908967;29;20128;-66
2023/03/24 07:17:15;;;;;;;12.63;2.90;;;;;;;-145.50;100.00;65435.88;4902549;29;20059;-65
2023/03/24 07:19:43;;;;;;;9.95;2.92;;;;;;;-145.50;100.00;65435.88;4907597;29;20052;-65
2023/03/24 07:22:10;;;;;;;8.25;2.40;;;;;;;-145.50;100.00;65435.88;4904262;29;20143;-64
2023/03/24 07:24:37;;;;;;;8.18;2.47;;;;;;;-145.50;100.00;65435.88;4897624;29;20052;-65
2023/03/24 07:27:03;;;;;;;13.30;2.78;;;;;;;-145.50;100.00;65435.88;4896316;29;20144;-65
2023/03/24 07:29:30;;;;;;;9.68;2.05;;;;;;;-145.50;100.00;65435.88;4902627;29;20052;-64
2023/03/24 07:31:59;;;;;;;10.45;2.75;;;;;;;-145.50;100.00;65435.88;4908078;29;20644;-65
2023/03/24 07:34:27;;;;;;;13.20;2.60;;;;;;;-145.50;100.00;65435.88;4907957;29;20170;-65
2023/03/24 07:36:54;;;;;;;16.38;2.70;;;;;;;-145.50;100.00;65435.88;4896857;29;20484;-66
2023/03/24 07:39:20;;;;;;;9.65;2.55;;;;;;;-145.50;100.00;65435.88;4901105;29;20048;-65
2023/03/24 07:41:47;;;;;;;18.52;3.70;;;;;;;-145.50;100.00;65435.88;4900039;29;20414;-65
2023/03/24 07:44:13;;;;;;;17.92;3.33;;;;;;;-145.50;100.00;65435.88;4908976;29;20095;-67
2023/03/24 07:46:40;;;;;;;12.07;2.83;;;;;;;-145.50;100.00;65435.88;4900281;29;20055;-65
2023/03/24 07:49:07;;;;;;;11.40;2.40;;;;;;;-145.50;100.00;65435.88;4892472;29;20479;-65
2023/03/24 07:51:44;;;;;;;13.55;3.00;;;;;;;-145.50;100.00;65435.88;4889726;29;20044;-65
2023/03/24 07:54:11;;;;;;;15.27;3.42;;;;;;;-145.50;100.00;65435.88;4897957;29;20055;-65
2023/03/24 07:56:38;;;;;;;14.40;2.20;;;;;;;-145.50;100.00;65435.88;4897317;29;20512;-66
2023/03/24 07:59:04;;;;;;;11.43;2.30;;;;;;;-145.50;100.00;65435.88;4897035;29;20403;-65
2023/03/24 08:01:31;;;;;;;16.70;2.92;;;;;;;-145.50;100.00;65435.88;4906733;29;20056;-65
2023/03/24 08:03:58;;;;;;;11.43;2.28;;;;;;;-145.50;100.00;65435.88;4895657;29;20056;-66
2023/03/24 08:06:24;;;;;;;11.27;2.30;;;;;;;-145.50;100.00;65435.88;4901361;29;20112;-66
2023/03/24 08:08:51;;;;;;;10.80;2.33;;;;;;;-145.50;100.00;65435.88;4905971;29;20498;-64
2023/03/24 08:11:18;;;;;;;8.93;2.30;;;;;;;-145.50;100.00;65435.88;4899156;29;20164;-65
2023/03/24 08:13:44;;;;;;;15.18;2.88;;;;;;;-145.50;100.00;65435.88;4923692;29;20056;-66
2023/03/24 08:16:11;;;;;;;13.32;2.67;;;;;;;-145.50;100.00;65435.88;4903558;29;20095;-65
2023/03/24 08:18:37;;;;;;;15.50;2.60;;;;;;;-145.50;100.00;65435.88;4905029;29;20610;-65
2023/03/24 08:21:04;;;;;;;7.10;2.20;;;;;;;-145.50;100.00;65435.88;4897806;29;20056;-66
2023/03/24 08:23:31;;;;;;;14.45;2.30;;;;;;;-145.50;100.00;65435.88;4906928;29;20641;-65
2023/03/24 08:25:57;;;;;;;9.88;2.58;;;;;;;-145.50;100.00;65435.88;4908801;29;20058;-66
2023/03/24 08:28:24;;;;;;;10.07;2.47;;;;;;;-145.50;100.00;65435.88;4903586;29;20056;-66
2023/03/24 08:30:50;;;;;;;11.68;2.47;;;;;;;-145.50;100.00;65435.88;4907652;29;20051;-65
2023/03/24 08:33:17;;;;;;;10.70;2.40;;;;;;;-145.50;100.00;65435.88;4897135;29;20147;-66
2023/03/24 08:35:45;;;;;;;16.42;3.20;;;;;;;-145.50;100.00;65435.88;4905157;29;20052;-65
2023/03/24 08:38:13;;;;;;;11.48;2.30;;;;;;;-145.50;100.00;65435.88;4899420;29;20063;-64
2023/03/24 08:40:43;;;;;;;12.48;2.33;;;;;;;-145.50;100.00;65435.88;4908921;29;20120;-64
2023/03/24 08:43:13;;;;;;;13.95;2.58;;;;;;;-145.50;100.00;65435.88;4909624;29;20112;-66
2023/03/24 08:45:40;;;;;;;9.50;2.90;;;;;;;-145.50;100.00;65435.88;4887243;29;20675;-66
2023/03/24 08:48:08;;;;;;;8.57;2.50;;;;;;;-145.50;100.00;65435.88;4904370;29;20087;-65
2023/03/24 08:50:37;;;;;;;12.18;2.78;;;;;;;-145.50;100.00;65435.88;4901067;29;20059;-65
2023/03/24 08:53:04;;;;;;;11.95;2.67;;;;;;;-145.50;100.00;65435.88;4924307;29;20167;-65
2023/03/24 08:55:31;;;;;;;10.85;2.88;;;;;;;-145.50;100.00;65435.88;4903201;29;20048;-65
2023/03/24 08:57:58;;;;;;;11.93;2.80;;;;;;;-145.50;100.00;65435.88;4903722;29;20063;-65
2023/03/24 09:00:24;;;;;;;9.38;2.58;;;;;;;-145.50;100.00;65435.88;4902189;29;20559;-67
2023/03/24 09:02:53;;;;;;;10.73;2.55;;;;;;;-145.50;100.00;65435.88;4901589;29;20770;-65
2023/03/24 09:05:21;;;;;;;8.38;2.50;;;;;;;-145.50;100.00;65435.88;4924073;29;20055;-66
2023/03/24 09:08:08;;;;;;;8.38;2.15;;;;;;;-145.50;100.00;65435.88;4899668;29;20414;-65
2023/03/24 09:10:35;;;;;;;13.07;2.60;;;;;;;-145.50;100.00;65435.88;4909549;29;20040;-65
2023/03/24 09:13:03;;;;;;;12.75;2.50;;;;;;;-145.50;100.00;65435.88;4899735;29;20060;-66
2023/03/24 09:15:30;;;;;;;12.07;2.80;;;;;;;-145.50;100.00;65435.88;4905362;29;20056;-65
2023/03/24 09:17:56;;;;;;;13.40;3.20;;;;;;;-145.50;100.00;65435.88;4909771;29;20056;-65
2023/03/24 09:20:23;;;;;;;9.52;2.58;;;;;;;-145.50;100.00;65435.88;4904342;29;20044;-65
2023/03/24 09:22:50;;;;;;;8.52;2.40;;;;;;;-145.50;100.00;65435.88;4907696;29;20052;-66
2023/03/24 09:25:19;;;;;;;7.82;2.00;;;;;;;-145.50;100.00;65435.88;4902246;29;20527;-65
2023/03/24 09:27:46;;;;;;;10.82;2.58;;;;;;;-145.50;100.00;65435.88;4904206;29;20070;-65
2023/03/24 09:30:14;;;;;;;9.20;2.22;;;;;;;-145.50;100.00;65435.88;4897495;29;20055;-66
2023/03/24 09:32:42;;;;;;;9.93;2.40;;;;;;;-145.50;100.00;65435.88;4909202;29;20107;-67
2023/03/24 09:35:09;;;;;;;7.33;2.67;;;;;;;-145.50;100.00;65435.88;4906646;29;20123;-65
2023/03/24 09:37:37;;;;;;;11.13;2.85;;;;;;;-145.50;100.00;65435.88;4906492;29;20700;-65
2023/03/24 09:40:06;;;;;;;9.32;2.28;;;;;;;-145.50;100.00;65435.88;4908820;29;20056;-65
2023/03/24 09:42:37;;;;;;;11.80;2.92;;;;;;;-145.50;100.00;65435.88;4904233;29;20637;-66
2023/03/24 09:45:14;;;;;;;12.85;2.30;;;;;;;-145.50;100.00;65435.88;4924467;29;20048;-67
2023/03/24 09:47:47;;;;;;;8.27;2.30;;;;;;;-145.50;100.00;65435.88;4900332;29;20087;-66
2023/03/24 09:50:32;;;;;;;8.95;2.05;;;;;;;-145.50;100.00;65435.88;4908536;29;20087;-66
2023/03/24 09:53:09;;;;;;;12.13;2.15;;;;;;;-145.50;100.00;65435.88;4897272;29;20594;-66
2023/03/24 09:55:39;;;;;;;12.20;2.92;;;;;;;-145.50;100.00;65435.88;4910598;29;20116;-66
2023/03/24 09:58:10;;;;;;;10.55;1.98;;;;;;;-145.50;100.00;65435.88;4909592;29;20170;-67
2023/03/24 10:00:37;;;;;;;10.27;2.08;;;;;;;-145.50;100.00;65435.88;4908454;29;20050;-64
2023/03/24 10:03:19;;;;;;;9.55;1.90;;;;;;;-145.50;100.00;65435.88;4910056;29;20052;-67
2023/03/24 10:05:55;;;;;;;20.10;2.83;;;;;;;-145.50;100.00;65435.88;4897154;29;20446;-64
2023/03/24 10:08:34;;;;;;;10.90;1.83;;;;;;;-145.50;100.00;65435.88;4906194;29;20413;-67
2023/03/24 10:11:44;;;;;;;9.95;2.03;;;;;;;-145.50;100.00;65435.88;4902752;29;20090;-67
2023/03/24 10:14:42;;;;;;;11.73;2.22;;;;;;;-145.50;100.00;65435.88;4896175;29;20140;-64
2023/03/24 10:17:28;;;;;;;5.82;1.88;;;;;;;-145.50;100.00;65435.88;4886555;29;20664;-66
2023/03/24 10:20:07;;;;;;;10.23;2.45;;;;;;;-145.50;100.00;65435.88;4902167;29;20056;-68
2023/03/24 10:22:50;;;;;;;6.50;2.08;;;;;;;-145.50;100.00;65435.88;4895828;29;20063;-67
2023/03/24 10:25:40;;;;;;;9.00;2.40;;;;;;;-145.50;100.00;65435.88;4905206;29;20060;-64
2023/03/24 10:28:28;;;;;;;8.52;2.40;;;;;;;-145.50;100.00;65435.88;4899431;29;20062;-66
2023/03/24 10:30:59;;;;;;;5.90;1.83;;;;;;;-145.50;100.00;65435.88;4909369;29;20055;-64
2023/03/24 10:33:26;;;;;;;10.45;2.25;;;;;;;-145.50;100.00;65435.88;4894230;29;20565;-64
2023/03/24 10:35:55;;;;;;;8.52;2.13;;;;;;;-145.50;100.00;65435.88;4905138;29;20484;-64
2023/03/24 10:38:22;;;;;;;8.02;1.67;;;;;;;-145.50;100.00;65435.88;4905755;29;20417;-66
2023/03/24 10:40:50;;;;;;;10.90;2.00;;;;;;;-145.50;100.00;65435.88;4897386;29;20045;-64
2023/03/24 10:43:24;;;;;;;11.15;2.10;;;;;;;-145.50;100.00;65435.88;4909132;29;20048;-65
2023/03/24 10:45:57;;;;;;;5.78;1.60;;;;;;;-145.50;100.00;65435.88;4901175;28;20104;-66
2023/03/24 10:48:33;;;;;;;7.72;1.60;;;;;;;-145.50;100.00;65435.88;4899836;29;20056;-68
2023/03/24 10:51:00;;;;;;;8.45;1.70;;;;;;;-145.50;100.00;65435.88;4898629;29;20056;-67
2023/03/24 10:53:29;;;;;;;10.13;1.67;;;;;;;-145.50;100.00;65435.88;4910190;29;20056;-65
2023/03/24 10:55:56;;;;;;;9.35;1.70;;;;;;;-145.50;100.00;65435.88;4902703;29;20079;-65
2023/03/24 10:58:39;;;;;;;10.63;1.77;;;;;;;-145.50;100.00;65435.88;4909061;29;20112;-66
2023/03/24 11:01:26;;;;;;;8.80;1.73;;;;;;;-145.50;100.00;65435.88;4904996;29;20040;-66
2023/03/24 11:04:03;;;;;;;10.35;2.13;;;;;;;-145.50;100.00;65435.88;4898787;29;20112;-67
2023/03/24 11:06:31;;;;;;;7.45;1.75;;;;;;;-145.50;100.00;65435.88;4909140;29;20052;-66
2023/03/24 11:09:19;;;;;;;7.83;1.90;;;;;;;-145.50;100.00;65435.88;4902766;29;20161;-66
2023/03/24 11:11:45;;;;;;;11.67;2.53;;;;;;;-145.50;100.00;65435.88;4908870;29;20056;-66
2023/03/24 11:14:24;;;;;;;8.02;1.75;;;;;;;-145.50;100.00;65435.88;4901496;29;20570;-66
2023/03/24 11:16:53;;;;;;;6.18;1.88;;;;;;;-145.50;100.00;65435.88;4898886;29;20142;-68
2023/03/24 11:19:23;;;;;;;6.78;1.65;;;;;;;-145.50;100.00;65435.88;4887414;29;20059;-66
2023/03/24 11:21:56;;;;;;;5.05;1.25;;;;;;;-145.50;100.00;65435.88;4905348;29;20050;-66
2023/03/24 11:24:24;;;;;;;6.50;1.50;;;;;;;-145.50;100.00;65435.88;4909266;29;20424;-65
2023/03/24 11:26:59;;;;;;;4.18;1.55;;;;;;;-145.50;100.00;65435.88;4897686;29;20060;-66
2023/03/24 11:29:26;;;;;;;6.40;1.85;;;;;;;-145.50;100.00;65435.88;4904718;29;20055;-68